Time;durP1;ratioP1;P1;durP2;ratioP2;P2;SDS_P1;SDS_P2;PMS_P1;PMS_P2;Temp;Humidity;BMP_temperature;BMP_pressure;BME280_temperature;BME280_humidity;BME280_pressure;Samples;Min_cycle;Max_cycle;Signal;HPM_P1;HPM_P2
2023/06/05 00:01:58;;;;;;;;;;;;;;;23.09;41.31;97997.06;5044018;28;19926;-69
2023/06/05 00:04:24;;;;;;;;;;;;;;;23.06;41.11;97989.59;5047894;28;19925;-70
2023/06/05 00:06:52;;;;;;;;;;;;;;;23.07;41.20;97983.81;5047894;28;19925;-69
2023/06/05 00:09:18;;;;;;;;;;;;;;;23.01;41.17;97982.44;5044736;28;19921;-69
2023/06/05 00:11:45;;;;;;;;;;;;;;;22.41;41.62;97983.19;5043840;28;19925;-69
2023/06/05 00:14:11;;;;;;;;;;;;;;;22.17;41.87;97983.16;5045476;28;19929;-69
2023/06/05 00:16:37;;;;;;;;;;;;;;;21.98;42.11;97978.22;5047344;28;19937;-69
2023/06/05 00:19:04;;;;;;;;;;;;;;;21.49;42.73;97974.47;5046000;28;19933;-69
2023/06/05 00:21:31;;;;;;;;;;;;;;;21.65;43.27;97982.81;5046098;28;19936;-69
2023/06/05 00:23:59;;;;;;;;;;;;;;;21.89;42.81;97982.94;5043411;28;19936;-69
2023/06/05 00:26:26;;;;;;;;;;;;;;;21.85;42.56;97978.50;5046632;28;19928;-69
2023/06/05 00:28:52;;;;;;;;;;;;;;;21.73;42.67;97981.13;5046731;28;20460;-69
2023/06/05 00:31:21;;;;;;;;;;;;;;;21.52;42.89;97983.88;5043686;28;19925;-69
2023/06/05 00:33:47;;;;;;;;;;;;;;;21.95;42.94;97991.69;5043125;28;19928;-69
2023/06/05 00:36:14;;;;;;;;;;;;;;;22.28;42.21;97981.56;5044213;28;19937;-69
2023/06/05 00:38:40;;;;;;;;;;;;;;;22.32;41.92;97982.50;5046652;28;19929;-69
2023/06/05 00:41:08;;;;;;;;;;;;;;;22.52;41.75;97989.78;5044988;28;20373;-69
2023/06/05 00:43:34;;;;;;;;;;;;;;;22.57;41.54;97981.41;5042966;28;19925;-69
2023/06/05 00:46:03;;;;;;;;;;;;;;;22.68;41.71;97989.16;5043615;28;19930;-69
2023/06/05 00:48:30;;;;;;;;;;;;;;;22.72;41.56;97987.31;5046338;28;19929;-69
2023/06/05 00:50:57;;;;;;;;;;;;;;;22.73;41.36;97980.75;5048832;28;19925;-69
2023/06/05 00:53:23;;;;;;;;;;;;;;;22.74;41.30;97988.59;5042727;28;19926;-69
2023/06/05 00:55:50;;;;;;;;;;;;;;;22.64;41.26;97985.50;5042583;28;19936;-69
2023/06/05 00:58:18;;;;;;;;;;;;;;;22.31;42.10;97977.41;5045321;28;19940;-69
2023/06/05 01:00:45;;;;;;;;;;;;;;;22.10;42.14;97977.44;5046066;28;19935;-69
2023/06/05 01:03:12;;;;;;;;;;;;;;;21.67;42.19;97980.56;5043989;28;19925;-69
2023/06/05 01:05:39;;;;;;;;;;;;;;;21.25;42.99;97974.34;5042642;28;20480;-69
2023/06/05 01:08:09;;;;;;;;;;;;;;;21.23;43.24;97976.59;5044002;28;19925;-69
2023/06/05 01:10:35;;;;;;;;;;;;;;;21.01;43.33;97977.66;5045870;28;19925;-69
2023/06/05 01:13:13;;;;;;;;;;;;;;;21.04;43.43;97973.50;5045167;28;19936;-69
2023/06/05 01:15:40;;;;;;;;;;;;;;;21.22;43.08;97975.00;5042471;28;19993;-69
2023/06/05 01:18:08;;;;;;;;;;;;;;;21.06;43.10;97976.69;5043781;28;19925;-69
2023/06/05 01:20:34;;;;;;;;;;;;;;;20.94;43.21;97979.31;5048320;28;20012;-69
2023/06/05 01:23:02;;;;;;;;;;;;;;;21.12;43.41;97978.09;5045060;28;19924;-69
2023/06/05 01:25:29;;;;;;;;;;;;;;;21.59;42.90;97972.47;5042149;28;19921;-69
2023/06/05 01:27:58;;;;;;;;;;;;;;;21.29;43.06;97974.50;5042326;28;19926;-69
2023/06/05 01:30:28;;;;;;;;;;;;;;;21.23;43.30;97975.81;5042096;28;19928;-69
2023/06/05 01:33:01;;;;;;;;;;;;;;;21.16;43.51;97961.94;5042034;28;19941;-69
2023/06/05 01:35:32;;;;;;;;;;;;;;;20.72;43.70;97958.69;5042151;28;19925;-69
2023/06/05 01:37:59;;;;;;;;;;;;;;;20.61;44.08;97965.56;5042391;28;19945;-69
2023/06/05 01:40:27;;;;;;;;;;;;;;;20.19;44.57;97959.19;5045634;28;20013;-69
2023/06/05 01:42:55;;;;;;;;;;;;;;;20.03;44.63;97960.81;5045520;28;19932;-69
2023/06/05 01:45:21;;;;;;;;;;;;;;;20.11;44.57;97961.94;5042464;28;19929;-69
2023/06/05 01:47:49;;;;;;;;;;;;;;;20.46;44.51;97953.38;5042229;28;19945;-69
2023/06/05 01:50:16;;;;;;;;;;;;;;;20.72;44.09;97960.59;5047171;28;19925;-69
2023/06/05 01:52:44;;;;;;;;;;;;;;;20.81;44.00;97954.00;5044261;28;19931;-69
2023/06/05 01:55:16;;;;;;;;;;;;;;;20.36;44.38;97953.72;5043239;28;19933;-69
2023/06/05 01:57:44;;;;;;;;;;;;;;;20.67;44.61;97948.00;5040661;28;20357;-69
2023/06/05 02:00:13;;;;;;;;;;;;;;;20.87;44.17;97943.72;5043770;28;19926;-69
2023/06/05 02:02:40;;;;;;;;;;;;;;;21.18;43.90;97946.13;5044100;28;19952;-69
2023/06/05 02:05:07;;;;;;;;;;;;;;;20.61;44.71;97949.28;5044062;28;19926;-69
2023/06/05 02:07:37;;;;;;;;;;;;;;;20.53;44.88;97946.63;5041941;28;19921;-69
2023/06/05 02:10:05;;;;;;;;;;;;;;;20.43;45.05;97951.31;5042794;28;19936;-69
2023/06/05 02:12:32;;;;;;;;;;;;;;;20.10;45.72;97950.28;5044290;28;19952;-69
2023/06/05 02:15:00;;;;;;;;;;;;;;;19.99;46.09;97948.25;5048791;28;19951;-69
2023/06/05 02:17:26;;;;;;;;;;;;;;;19.49;47.03;97935.25;5045626;28;19929;-69
2023/06/05 02:19:52;;;;;;;;;;;;;;;19.32;47.64;97940.63;5047672;28;19926;-69
2023/06/05 02:22:19;;;;;;;;;;;;;;;19.88;46.92;97932.31;5048834;28;19932;-69
2023/06/05 02:24:46;;;;;;;;;;;;;;;19.72;47.86;97938.56;5048850;28;19921;-69
2023/06/05 02:27:12;;;;;;;;;;;;;;;19.27;48.15;97938.88;5046545;28;19932;-69
2023/06/05 02:29:39;;;;;;;;;;;;;;;19.34;48.44;97939.19;5045460;28;19921;-69
2023/06/05 02:32:07;;;;;;;;;;;;;;;19.46;47.91;97940.50;5046375;28;19926;-69
2023/06/05 02:34:33;;;;;;;;;;;;;;;19.71;48.16;97937.75;5048633;28;19925;-69
2023/06/05 02:37:01;;;;;;;;;;;;;;;19.81;47.79;97947.47;5048230;28;19932;-69
2023/06/05 02:39:27;;;;;;;;;;;;;;;20.61;46.57;97934.97;5045149;28;19925;-69
2023/06/05 02:41:55;;;;;;;;;;;;;;;21.03;45.50;97944.75;5045075;28;19925;-69
2023/06/05 02:44:21;;;;;;;;;;;;;;;21.38;45.01;97943.41;5044983;28;19929;-69
2023/06/05 02:46:48;;;;;;;;;;;;;;;21.53;44.52;97944.72;5043850;28;19929;-69
2023/06/05 02:49:16;;;;;;;;;;;;;;;21.65;44.26;97943.97;5047277;28;19925;-69
2023/06/05 02:51:42;;;;;;;;;;;;;;;21.69;44.01;97942.97;5050141;28;19929;-69
2023/06/05 02:54:08;;;;;;;;;;;;;;;21.69;44.00;97945.69;5045327;28;19921;-69
2023/06/05 02:56:35;;;;;;;;;;;;;;;21.77;43.96;97935.84;5048259;28;19932;-69
2023/06/05 02:59:02;;;;;;;;;;;;;;;21.78;43.79;97940.19;5047603;28;19929;-69
2023/06/05 03:01:34;;;;;;;;;;;;;;;21.73;43.75;97935.72;5045762;28;19945;-69
2023/06/05 03:04:02;;;;;;;;;;;;;;;21.77;43.79;97941.28;5045867;28;19926;-69
2023/06/05 03:06:35;;;;;;;;;;;;;;;21.79;43.65;97939.81;5048931;28;19932;-69
2023/06/05 03:09:01;;;;;;;;;;;;;;;21.76;43.59;97937.78;5048197;28;19921;-69
2023/06/05 03:11:27;;;;;;;;;;;;;;;21.76;43.80;97940.50;5044834;28;19926;-69
2023/06/05 03:13:54;;;;;;;;;;;;;;;21.73;43.87;97933.00;5045072;28;19925;-69
2023/06/05 03:16:23;;;;;;;;;;;;;;;21.75;43.65;97932.69;5048806;28;19941;-69
2023/06/05 03:18:49;;;;;;;;;;;;;;;21.73;43.75;97937.66;5048300;28;19925;-69
2023/06/05 03:21:15;;;;;;;;;;;;;;;21.73;43.78;97934.94;5048207;28;19925;-69
2023/06/05 03:23:43;;;;;;;;;;;;;;;21.73;43.86;97934.94;5044028;28;19933;-69
2023/06/05 03:26:09;;;;;;;;;;;;;;;21.73;43.89;97933.00;5043756;28;19936;-69
2023/06/05 03:28:37;;;;;;;;;;;;;;;21.77;43.83;97923.06;5047538;28;19936;-69
2023/06/05 03:31:03;;;;;;;;;;;;;;;21.73;43.85;97922.13;5046698;28;19929;-69
2023/06/05 03:33:30;;;;;;;;;;;;;;;21.67;44.06;97928.13;5044133;28;19925;-69
2023/06/05 03:35:56;;;;;;;;;;;;;;;21.62;44.10;97931.06;5044100;28;19926;-69
2023/06/05 03:38:22;;;;;;;;;;;;;;;21.43;44.29;97928.81;5035723;28;19930;-69
2023/06/05 03:40:50;;;;;;;;;;;;;;;21.49;44.42;97931.00;5034354;28;19937;-69
2023/06/05 03:43:16;;;;;;;;;;;;;;;21.52;44.20;97932.25;5035548;28;19929;-69
2023/06/05 03:45:43;;;;;;;;;;;;;;;21.51;44.27;97928.75;5035819;28;19929;-69
2023/06/05 03:48:11;;;;;;;;;;;;;;;21.50;44.22;97934.53;5035040;28;21292;-69
2023/06/05 03:50:38;;;;;;;;;;;;;;;21.57;44.27;97939.41;5043862;28;19933;-69
2023/06/05 03:53:04;;;;;;;;;;;;;;;21.50;44.34;97943.47;5046268;28;19928;-69
2023/06/05 03:55:40;;;;;;;;;;;;;;;21.50;44.37;97943.47;5043941;28;19933;-69
2023/06/05 03:58:08;;;;;;;;;;;;;;;21.56;44.23;97948.69;5044879;28;20503;-69
2023/06/05 04:00:35;;;;;;;;;;;;;;;21.53;44.18;97945.53;5047040;28;19921;-69
2023/06/05 04:03:01;;;;;;;;;;;;;;;21.51;44.50;97950.47;5046417;28;19985;-69
2023/06/05 04:05:27;;;;;;;;;;;;;;;21.51;44.52;97944.25;5043402;28;19925;-69
2023/06/05 04:07:54;;;;;;;;;;;;;;;21.41;44.65;97948.19;5043300;28;19937;-69
2023/06/05 04:10:20;;;;;;;;;;;;;;;21.39;44.42;97947.69;5046548;28;20012;-69
2023/06/05 04:12:47;;;;;;;;;;;;;;;21.38;44.51;97946.13;5046893;28;19980;-69
2023/06/05 04:15:15;;;;;;;;;;;;;;;21.13;44.83;97952.56;5044483;28;19936;-69
2023/06/05 04:17:41;;;;;;;;;;;;;;;20.97;45.08;97952.31;5042379;28;20271;-69
2023/06/05 04:20:13;;;;;;;;;;;;;;;20.94;45.33;97960.31;5046372;28;19932;-69
2023/06/05 04:22:40;;;;;;;;;;;;;;;21.09;45.09;97958.97;5046853;28;19929;-68
2023/06/05 04:25:06;;;;;;;;;;;;;;;21.15;45.07;97955.72;5045302;28;19921;-69
2023/06/05 04:27:32;;;;;;;;;;;;;;;20.70;45.72;97960.94;5043258;28;20095;-69
2023/06/05 04:29:59;;;;;;;;;;;;;;;20.29;46.32;97964.28;5043336;28;19933;-69
2023/06/05 04:32:27;;;;;;;;;;;;;;;20.16;46.68;97965.25;5045392;28;19929;-69
2023/06/05 04:34:53;;;;;;;;;;;;;;;20.42;46.57;97963.25;5046570;28;19925;-69
2023/06/05 04:37:19;;;;;;;;;;;;;;;19.67;47.11;97955.00;5043130;28;19952;-69
2023/06/05 04:39:46;;;;;;;;;;;;;;;19.86;47.57;97963.56;5043021;28;19936;-69
2023/06/05 04:42:13;;;;;;;;;;;;;;;20.07;47.06;97956.34;5045293;28;19925;-69
2023/06/05 04:44:39;;;;;;;;;;;;;;;19.80;47.62;97957.53;5047165;28;19925;-69
2023/06/05 04:47:06;;;;;;;;;;;;;;;20.22;47.24;97953.09;5045707;28;19932;-69
2023/06/05 04:49:34;;;;;;;;;;;;;;;20.15;47.14;97950.09;5042946;28;19926;-69
2023/06/05 04:52:00;;;;;;;;;;;;;;;20.15;47.27;97960.13;5046061;28;20005;-69
2023/06/05 04:54:26;;;;;;;;;;;;;;;19.99;47.70;97946.34;5046500;28;19929;-69
2023/06/05 04:56:53;;;;;;;;;;;;;;;19.86;47.74;97952.72;5046383;28;19932;-69
2023/06/05 04:59:19;;;;;;;;;;;;;;;19.33;48.59;97953.88;5058801;28;19926;-69
2023/06/05 05:01:47;;;;;;;;;;;;;;;18.50;50.14;97956.88;5041669;28;19926;-69
2023/06/05 05:04:14;;;;;;;;;;;;;;;18.52;50.75;97952.75;5044764;28;19929;-69
2023/06/05 05:06:47;;;;;;;;;;;;;;;19.33;49.37;97959.28;5046007;28;19925;-69
2023/06/05 05:09:13;;;;;;;;;;;;;;;19.11;49.71;97953.19;5043590;28;20082;-69
2023/06/05 05:11:39;;;;;;;;;;;;;;;19.36;49.57;97957.84;5042431;28;19925;-69
2023/06/05 05:14:06;;;;;;;;;;;;;;;18.94;50.40;97955.91;5043626;28;19926;-69
2023/06/05 05:16:32;;;;;;;;;;;;;;;18.96;51.00;97943.63;5045835;28;20386;-69
2023/06/05 05:18:59;;;;;;;;;;;;;;;19.25;50.35;97943.00;5044574;28;20047;-69
2023/06/05 05:21:25;;;;;;;;;;;;;;;19.69;49.67;97940.00;5044911;28;19926;-69
2023/06/05 05:23:53;;;;;;;;;;;;;;;19.32;50.78;97948.75;5042274;28;19933;-69
2023/06/05 05:26:20;;;;;;;;;;;;;;;19.22;51.03;97947.16;5045316;28;19925;-69
2023/06/05 05:28:46;;;;;;;;;;;;;;;19.28;51.51;97951.28;5046078;28;19948;-69
2023/06/05 05:31:13;;;;;;;;;;;;;;;20.06;50.03;97954.75;5043736;28;19924;-69
2023/06/05 05:33:39;;;;;;;;;;;;;;;20.12;50.13;97963.50;5042276;28;19932;-69
2023/06/05 05:36:05;;;;;;;;;;;;;;;20.27;50.22;97952.19;5043271;28;19926;-69
2023/06/05 05:38:32;;;;;;;;;;;;;;;20.49;50.04;97956.56;5045793;28;19932;-69
2023/06/05 05:41:00;;;;;;;;;;;;;;;20.50;50.23;97952.72;5045641;28;19932;-69
2023/06/05 05:43:26;;;;;;;;;;;;;;;20.69;50.08;97955.81;5042352;28;19929;-69
2023/06/05 05:45:53;;;;;;;;;;;;;;;21.14;48.94;97953.31;5042101;28;20500;-69
2023/06/05 05:48:19;;;;;;;;;;;;;;;21.29;49.35;97953.53;5046512;28;19925;-69
2023/06/05 05:50:45;;;;;;;;;;;;;;;21.26;49.75;97954.19;5052232;28;19925;-69
2023/06/05 05:53:12;;;;;;;;;;;;;;;21.48;50.07;97950.34;5047456;28;19952;-69
2023/06/05 05:55:38;;;;;;;;;;;;;;;21.48;50.11;97963.94;5046439;28;19928;-69
2023/06/05 05:58:06;;;;;;;;;;;;;;;21.51;50.33;97953.19;5047640;28;19937;-69
2023/06/05 06:00:34;;;;;;;;;;;;;;;21.63;50.37;97947.03;5049712;28;19925;-69
2023/06/05 06:03:00;;;;;;;;;;;;;;;21.79;50.75;97956.13;5049156;28;19925;-69
2023/06/05 06:05:28;;;;;;;;;;;;;;;21.92;50.37;97951.56;5045940;28;19925;-69
2023/06/05 06:07:54;;;;;;;;;;;;;;;22.04;50.93;97951.59;5045555;28;19937;-69
2023/06/05 06:10:21;;;;;;;;;;;;;;;22.23;51.67;97954.59;5047505;28;19952;-69
2023/06/05 06:12:47;;;;;;;;;;;;;;;22.12;51.75;97948.00;5049196;28;19929;-69
2023/06/05 06:15:15;;;;;;;;;;;;;;;22.14;53.06;97945.72;5047224;28;19932;-69
2023/06/05 06:17:42;;;;;;;;;;;;;;;22.03;53.60;97948.06;5044230;28;19925;-69
2023/06/05 06:20:12;;;;;;;;;;;;;;;21.96;53.88;97945.13;5049647;28;19947;-69
2023/06/05 06:22:39;;;;;;;;;;;;;;;22.17;55.12;97945.06;5048884;28;19921;-69
2023/06/05 06:25:06;;;;;;;;;;;;;;;22.09;55.00;97943.25;5047577;28;19948;-69
2023/06/05 06:27:32;;;;;;;;;;;;;;;22.00;55.36;97940.59;5045298;28;19925;-69
2023/06/05 06:29:59;;;;;;;;;;;;;;;22.08;56.81;97938.94;5045460;28;19925;-69
2023/06/05 06:32:27;;;;;;;;;;;;;;;21.90;57.89;97945.69;5048644;28;19921;-69
2023/06/05 06:34:53;;;;;;;;;;;;;;;22.17;59.78;97944.25;5048833;28;19944;-69
2023/06/05 06:37:20;;;;;;;;;;;;;;;22.09;60.46;97945.97;5045350;28;19926;-69
2023/06/05 06:39:47;;;;;;;;;;;;;;;21.99;59.76;97952.63;5045179;28;19925;-69
2023/06/05 06:42:14;;;;;;;;;;;;;;;22.18;61.76;97952.09;5047221;28;19933;-69
2023/06/05 06:44:40;;;;;;;;;;;;;;;22.26;62.35;97953.91;5048304;28;19928;-69
2023/06/05 06:47:07;;;;;;;;;;;;;;;22.23;63.79;97953.78;5047049;28;19932;-69
2023/06/05 06:49:35;;;;;;;;;;;;;;;22.24;63.31;97950.75;5045062;28;19922;-69
2023/06/05 06:52:02;;;;;;;;;;;;;;;22.39;65.07;97950.09;5048329;28;20216;-69
2023/06/05 06:54:29;;;;;;;;;;;;;;;22.21;65.85;97956.88;5046886;28;19925;-69
2023/06/05 06:56:56;;;;;;;;;;;;;;;22.25;66.75;97946.09;5047881;28;19925;-69
2023/06/05 06:59:23;;;;;;;;;;;;;;;22.39;66.59;97950.09;5044554;28;19922;-69
2023/06/05 07:02:08;;;;;;;;;;;;;;;22.37;64.82;97952.38;5044408;28;19925;-69
2023/06/05 07:04:36;;;;;;;;;;;;;;;22.33;66.04;97953.38;5048564;28;19929;-69
2023/06/05 07:07:03;;;;;;;;;;;;;;;22.45;66.41;97954.16;5046930;28;19932;-69
2023/06/05 07:09:29;;;;;;;;;;;;;;;22.48;66.81;97949.97;5044122;28;20043;-69
2023/06/05 07:11:56;;;;;;;;;;;;;;;22.53;65.78;97947.03;5044272;28;19933;-69
2023/06/05 07:14:22;;;;;;;;;;;;;;;22.69;66.36;97945.25;5047317;28;19936;-69
2023/06/05 07:16:51;;;;;;;;;;;;;;;22.64;66.09;97941.94;5047560;28;19925;-69
2023/06/05 07:19:17;;;;;;;;;;;;;;;22.71;67.08;97944.91;5044938;28;19929;-69
2023/06/05 07:21:45;;;;;;;;;;;;;;;22.62;66.76;97936.03;5047119;28;20208;-69
2023/06/05 07:24:11;;;;;;;;;;;;;;;22.60;67.87;97937.16;5044906;28;19925;-68
2023/06/05 07:26:38;;;;;;;;;;;;;;;22.64;66.80;97941.94;5047437;28;19925;-68
2023/06/05 07:29:04;;;;;;;;;;;;;;;22.40;67.11;97946.25;5046414;28;19928;-68
2023/06/05 07:31:31;;;;;;;;;;;;;;;22.56;66.50;97949.09;5043962;28;19932;-68
2023/06/05 07:33:57;;;;;;;;;;;;;;;22.47;66.42;97949.19;5043826;28;19926;-68
2023/06/05 07:36:24;;;;;;;;;;;;;;;22.35;68.34;97951.09;5045878;28;19925;-68
2023/06/05 07:38:52;;;;;;;;;;;;;;;22.02;67.92;97953.88;5047239;28;19932;-68
2023/06/05 07:41:18;;;;;;;;;;;;;;;22.08;69.29;97949.81;5044053;28;20009;-69
2023/06/05 07:43:45;;;;;;;;;;;;;;;22.12;69.25;97948.00;5044180;28;19926;-69
2023/06/05 07:46:11;;;;;;;;;;;;;;;22.06;70.71;97952.84;5045686;28;20448;-69
2023/06/05 07:48:38;;;;;;;;;;;;;;;22.28;70.18;97956.31;5046082;28;19932;-69
2023/06/05 07:51:05;;;;;;;;;;;;;;;21.99;70.99;97955.34;5048874;28;19925;-69
2023/06/05 07:53:31;;;;;;;;;;;;;;;21.99;71.37;97949.09;5043614;28;19948;-69
2023/06/05 07:55:59;;;;;;;;;;;;;;;22.29;70.25;97945.06;5042329;28;19949;-69
2023/06/05 07:58:27;;;;;;;;;;;;;;;22.59;69.04;97943.72;5046758;28;19936;-69
2023/06/05 08:00:54;;;;;;;;;;;;;;;22.57;70.04;97937.84;5046934;28;19932;-69
2023/06/05 08:03:20;;;;;;;;;;;;;;;22.51;69.87;97941.13;5042540;28;19925;-69
2023/06/05 08:05:47;;;;;;;;;;;;;;;22.63;69.64;97941.13;5043372;28;19929;-69
2023/06/05 08:08:14;;;;;;;;;;;;;;;22.65;69.34;97932.63;5045453;28;19937;-69
2023/06/05 08:10:40;;;;;;;;;;;;;;;22.70;69.23;97937.88;5046184;28;19932;-69
2023/06/05 08:13:08;;;;;;;;;;;;;;;22.67;69.06;97933.13;5045341;28;20000;-69
2023/06/05 08:15:34;;;;;;;;;;;;;;;22.80;68.50;97931.97;5043221;28;19926;-69
2023/06/05 08:18:00;;;;;;;;;;;;;;;22.54;70.02;97929.56;5043749;28;19921;-69
2023/06/05 08:20:27;;;;;;;;;;;;;;;22.73;69.70;97929.03;5049322;28;19929;-69
2023/06/05 08:22:53;;;;;;;;;;;;;;;22.61;70.54;97935.25;5046705;28;19943;-69
2023/06/05 08:25:20;;;;;;;;;;;;;;;22.86;68.92;97925.16;5043473;28;19926;-69
2023/06/05 08:27:46;;;;;;;;;;;;;;;22.87;68.26;97924.03;5043483;28;19925;-69
2023/06/05 08:30:14;;;;;;;;;;;;;;;22.69;69.53;97931.63;5045113;28;19925;-69
2023/06/05 08:32:40;;;;;;;;;;;;;;;22.66;70.81;97928.78;5046335;28;19928;-69
2023/06/05 08:35:07;;;;;;;;;;;;;;;22.88;69.37;97925.59;5045023;28;19929;-69
2023/06/05 08:37:33;;;;;;;;;;;;;;;22.81;69.75;97920.72;5042962;28;19922;-69
2023/06/05 08:40:05;;;;;;;;;;;;;;;22.99;68.80;97915.84;5043086;28;19926;-69
2023/06/05 08:42:32;;;;;;;;;;;;;;;23.18;67.58;97920.69;5046014;28;19925;-69
2023/06/05 08:44:59;;;;;;;;;;;;;;;23.09;66.76;97926.25;5046011;28;19921;-69
2023/06/05 08:47:29;;;;;;;;;;;;;;;23.02;66.94;97920.59;5042737;28;19926;-69
2023/06/05 08:49:57;;;;;;;;;;;;;;;22.86;68.07;97922.44;5045463;28;19922;-69
2023/06/05 08:52:24;;;;;;;;;;;;;;;22.79;69.21;97922.22;5034514;28;19936;-69
2023/06/05 08:54:50;;;;;;;;;;;;;;;22.72;71.30;97922.78;5035104;28;19944;-69
2023/06/05 08:57:17;;;;;;;;;;;;;;;22.98;71.70;97919.69;5034908;28;19930;-69
2023/06/05 08:59:44;;;;;;;;;;;;;;;22.90;71.13;97913.22;5034871;28;19926;-69
2023/06/05 09:02:11;;;;;;;;;;;;;;;22.92;71.50;97921.06;5034596;28;19925;-69
2023/06/05 09:04:39;;;;;;;;;;;;;;;22.95;71.74;97917.66;5034666;28;19933;-69
2023/06/05 09:07:06;;;;;;;;;;;;;;;22.98;72.30;97917.78;5033189;28;19925;-69
2023/06/05 09:09:33;;;;;;;;;;;;;;;22.78;71.54;97921.41;5034228;28;20011;-69
2023/06/05 09:12:04;;;;;;;;;;;;;;;22.77;72.42;97911.69;5034684;28;19925;-69
2023/06/05 09:14:31;;;;;;;;;;;;;;;22.97;71.38;97913.44;5034246;28;19957;-69
2023/06/05 09:16:58;;;;;;;;;;;;;;;23.29;69.82;97908.94;5034166;28;19925;-69
2023/06/05 09:19:27;;;;;;;;;;;;;;;23.28;69.92;97906.56;5038092;28;19932;-69
2023/06/05 09:21:55;;;;;;;;;;;;;;;23.47;68.86;97904.81;5046319;28;19928;-69
2023/06/05 09:24:22;;;;;;;;;;;;;;;23.71;66.71;97903.13;5044293;28;19926;-69
2023/06/05 09:26:56;;;;;;;;;;;;;;;23.82;66.79;97910.47;5046064;28;19921;-69
2023/06/05 09:29:23;;;;;;;;;;;;;;;23.65;67.11;97906.09;5042728;28;19926;-69
2023/06/05 09:31:50;;;;;;;;;;;;;;;23.60;66.71;97902.84;5042481;28;19925;-69
2023/06/05 09:34:23;;;;;;;;;;;;;;;23.51;67.58;97907.66;5044593;28;19926;-69
2023/06/05 09:36:49;;;;;;;;;;;;;;;23.37;68.23;97899.03;5045319;28;19925;-69
2023/06/05 09:39:18;;;;;;;;;;;;;;;23.57;67.37;97912.50;5042880;28;19925;-69
2023/06/05 09:41:45;;;;;;;;;;;;;;;23.50;67.05;97901.41;5040854;28;19940;-69
2023/06/05 09:44:11;;;;;;;;;;;;;;;23.52;67.43;97901.84;5043848;28;19933;-69
2023/06/05 09:46:50;;;;;;;;;;;;;;;23.62;67.33;97901.34;5045357;28;19929;-69
2023/06/05 09:49:16;;;;;;;;;;;;;;;23.46;67.39;97889.59;5042876;28;19925;-69
2023/06/05 09:51:43;;;;;;;;;;;;;;;23.59;68.28;97898.53;5044729;28;19926;-69
2023/06/05 09:54:11;;;;;;;;;;;;;;;23.52;67.00;97890.94;5042429;28;19926;-69
2023/06/05 09:56:40;;;;;;;;;;;;;;;23.70;67.00;97888.72;5045806;28;19926;-69
2023/06/05 09:59:07;;;;;;;;;;;;;;;24.13;65.66;97888.72;5042695;28;19932;-69
2023/06/05 10:01:36;;;;;;;;;;;;;;;24.13;65.54;97885.19;5041996;28;19948;-69
2023/06/05 10:04:05;;;;;;;;;;;;;;;24.13;65.86;97887.91;5042390;28;19925;-69
2023/06/05 10:06:33;;;;;;;;;;;;;;;24.14;66.27;97886.75;5045187;28;19948;-69
2023/06/05 10:09:00;;;;;;;;;;;;;;;23.98;66.70;97891.41;5044797;28;20286;-69
2023/06/05 10:11:27;;;;;;;;;;;;;;;24.23;66.58;97892.84;5041875;28;19929;-69
2023/06/05 10:13:55;;;;;;;;;;;;;;;24.41;65.02;97888.63;5041808;28;19921;-70
2023/06/05 10:16:22;;;;;;;;;;;;;;;24.34;64.84;97893.88;5044755;28;19952;-69
2023/06/05 10:18:49;;;;;;;;;;;;;;;24.21;66.36;97889.66;5043807;28;19929;-69
2023/06/05 10:21:16;;;;;;;;;;;;;;;24.09;66.95;97884.25;5045470;28;19928;-69
2023/06/05 10:23:43;;;;;;;;;;;;;;;24.24;66.48;97886.22;5040579;28;19945;-69
2023/06/05 10:26:16;;;;;;;;;;;;;;;24.00;67.00;97883.63;5043010;28;19926;-69
2023/06/05 10:28:50;;;;;;;;;;;;;;;24.13;66.91;97880.53;5045155;28;19925;-69
2023/06/05 10:31:26;;;;;;;;;;;;;;;24.31;66.79;97889.13;5041190;28;19925;-70
2023/06/05 10:33:58;;;;;;;;;;;;;;;24.39;66.21;97873.72;5042119;28;19937;-70
2023/06/05 10:36:39;;;;;;;;;;;;;;;24.59;66.12;97873.44;5045007;28;19936;-70
2023/06/05 10:39:06;;;;;;;;;;;;;;;24.73;66.10;97880.38;5046662;28;19925;-69
2023/06/05 10:41:33;;;;;;;;;;;;;;;24.80;65.30;97872.31;5048697;28;19925;-69
2023/06/05 10:43:59;;;;;;;;;;;;;;;24.88;65.00;97874.13;5048072;28;19929;-69
2023/06/05 10:46:31;;;;;;;;;;;;;;;24.91;64.43;97863.25;5044731;28;19926;-69
2023/06/05 10:49:07;;;;;;;;;;;;;;;24.80;64.67;97862.19;5044727;28;19925;-69
2023/06/05 10:51:37;;;;;;;;;;;;;;;24.67;64.56;97858.78;5054539;28;19921;-69
2023/06/05 10:54:03;;;;;;;;;;;;;;;24.55;64.48;97864.38;5045180;28;20378;-69
2023/06/05 10:56:48;;;;;;;;;;;;;;;24.64;64.10;97866.91;5047804;28;19925;-72
2023/06/05 10:59:15;;;;;;;;;;;;;;;24.47;65.43;97870.03;5045437;28;19951;-69
2023/06/05 11:01:43;;;;;;;;;;;;;;;24.44;65.52;97871.53;5044320;28;19926;-69
2023/06/05 11:04:09;;;;;;;;;;;;;;;24.51;65.24;97871.66;5045823;28;19932;-69
2023/06/05 11:06:37;;;;;;;;;;;;;;;24.49;65.27;97868.50;5047642;28;19925;-69
2023/06/05 11:09:07;;;;;;;;;;;;;;;24.47;65.37;97867.28;5046962;28;19921;-69
2023/06/05 11:11:49;;;;;;;;;;;;;;;24.58;64.56;97871.03;5043084;28;19996;-69
2023/06/05 11:14:15;;;;;;;;;;;;;;;24.62;63.53;97864.53;5046336;28;20006;-69
2023/06/05 11:16:43;;;;;;;;;;;;;;;24.61;63.12;97862.16;5047478;28;19936;-69
2023/06/05 11:19:29;;;;;;;;;;;;;;;24.75;63.29;97854.28;5045953;28;19929;-69
2023/06/05 11:22:07;;;;;;;;;;;;;;;24.78;63.33;97850.03;5046877;28;19925;-69
2023/06/05 11:24:35;;;;;;;;;;;;;;;24.73;63.92;97853.84;5044193;28;19921;-69
2023/06/05 11:27:01;;;;;;;;;;;;;;;24.62;63.70;97855.53;5044115;28;19926;-69
2023/06/05 11:29:29;;;;;;;;;;;;;;;24.63;62.71;97855.19;5047472;28;19933;-69
2023/06/05 11:31:57;;;;;;;;;;;;;;;24.45;63.81;97851.25;5047890;28;19939;-69
2023/06/05 11:34:23;;;;;;;;;;;;;;;24.53;63.22;97841.28;5044207;28;19922;-69
2023/06/05 11:36:50;;;;;;;;;;;;;;;24.40;64.36;97843.34;5044104;28;19929;-69
2023/06/05 11:39:16;;;;;;;;;;;;;;;24.39;64.70;97852.66;5046302;28;19933;-69
2023/06/05 11:41:46;;;;;;;;;;;;;;;24.30;65.33;97854.78;5047094;28;20024;-69
2023/06/05 11:44:12;;;;;;;;;;;;;;;24.26;66.36;97853.94;5045096;28;19925;-69
2023/06/05 11:46:39;;;;;;;;;;;;;;;24.15;66.32;97858.31;5043141;28;19936;-69
2023/06/05 11:49:07;;;;;;;;;;;;;;;24.29;66.19;97855.97;5044624;28;19922;-68
2023/06/05 11:51:34;;;;;;;;;;;;;;;24.20;67.20;97860.00;5050549;28;19925;-68
2023/06/05 11:54:01;;;;;;;;;;;;;;;24.25;68.16;97855.06;5044593;28;19925;-69
2023/06/05 11:56:29;;;;;;;;;;;;;;;24.19;69.58;97853.75;5047196;28;19948;-69
2023/06/05 11:58:55;;;;;;;;;;;;;;;24.26;69.66;97850.41;5047369;28;19924;-69
2023/06/05 12:01:22;;;;;;;;;;;;;;;24.24;69.80;97853.47;5043950;28;19954;-69
2023/06/05 12:03:50;;;;;;;;;;;;;;;24.16;70.31;97854.47;5043843;28;20013;-69
2023/06/05 12:06:17;;;;;;;;;;;;;;;24.19;71.18;97853.75;5046237;28;19932;-69
2023/06/05 12:08:44;;;;;;;;;;;;;;;24.09;71.25;97863.22;5047274;28;19928;-69
2023/06/05 12:11:21;;;;;;;;;;;;;;;24.20;71.12;97855.34;5045195;28;19947;-69
2023/06/05 12:13:48;;;;;;;;;;;;;;;24.13;71.24;97857.91;5043327;28;19930;-69
2023/06/05 12:16:14;;;;;;;;;;;;;;;24.07;71.77;97857.34;5045176;28;19926;-69
2023/06/05 12:18:41;;;;;;;;;;;;;;;23.62;74.47;97852.28;5046531;28;19955;-69
2023/06/05 12:21:07;;;;;;;;;;;;;;;23.83;75.10;97860.22;5048207;28;20300;-69
2023/06/05 12:23:36;;;;;;;;;;;;;;;23.61;84.43;97861.59;5043257;28;20016;-69
2023/06/05 12:26:04;;;;;;;;;;;;;;;23.45;91.12;97862.72;5043657;28;19925;-69
2023/06/05 12:28:31;;;;;;;;;;;;;;;23.23;96.58;97866.75;5045348;28;20467;-69
2023/06/05 12:30:58;;;;;;;;;;;;;;;23.13;96.75;97868.00;5046433;28;19928;-69
2023/06/05 12:33:25;;;;;;;;;;;;;;;23.11;95.87;97869.50;5034720;28;19925;-69
2023/06/05 12:36:03;;;;;;;;;;;;;;;23.05;98.59;97868.16;5034755;28;19944;-69
2023/06/05 12:38:29;;;;;;;;;;;;;;;22.77;100.00;97865.38;5039124;28;19956;-69
2023/06/05 12:40:58;;;;;;;;;;;;;;;22.70;100.00;97872.53;5046447;28;19925;-69
2023/06/05 12:43:24;;;;;;;;;;;;;;;22.65;100.00;97867.31;5034755;28;19933;-69
2023/06/05 12:45:51;;;;;;;;;;;;;;;22.46;100.00;97870.63;5035005;28;19922;-69
2023/06/05 12:48:19;;;;;;;;;;;;;;;22.46;100.00;97865.97;5041675;28;19925;-69